createdAt,value
2023-12-30T00:01:55.857Z,100721.19
2023-12-30T00:04:58.354Z,100722.47
2023-12-30T00:08:00.539Z,100721.88
2023-12-30T00:11:03.795Z,100709.84
2023-12-30T00:14:06.735Z,100717.09
2023-12-30T00:17:09.142Z,100721.69
2023-12-30T00:20:14.078Z,100722.56
2023-12-30T00:23:17.113Z,100723.59
2023-12-30T00:26:20.817Z,100725.31
2023-12-30T00:29:22.864Z,100733.22
2023-12-30T00:32:25.093Z,100731.59
2023-12-30T00:35:27.431Z,100737.09
2023-12-30T00:38:30.645Z,100734.41
2023-12-30T00:41:32.927Z,100732.84
2023-12-30T00:44:35.672Z,100729.41
2023-12-30T00:47:38.486Z,100722.91
2023-12-30T00:50:40.803Z,100728.72
2023-12-30T00:53:46.302Z,100697.47
2023-12-30T00:56:56.485Z,100694.59
2023-12-30T01:00:02.836Z,100727.25
2023-12-30T01:03:07.021Z,100704.53
2023-12-30T01:06:12.142Z,100713.81
2023-12-30T01:09:14.599Z,100721.63
2023-12-30T01:12:17.829Z,100718.53
2023-12-30T01:15:20.033Z,100729.59
2023-12-30T01:18:23.665Z,100732.91
2023-12-30T01:21:27.280Z,100733.78
2023-12-30T01:24:30.994Z,100739.41
2023-12-30T01:27:33.456Z,100744.50
2023-12-30T01:30:38.434Z,100729.31
2023-12-30T01:33:41.988Z,100743.56
2023-12-30T01:36:44.266Z,100723.75
2023-12-30T01:39:46.429Z,100728.09
2023-12-30T01:42:49.693Z,100730.66
2023-12-30T01:45:53.757Z,100721.69
2023-12-30T01:48:56.251Z,100710.13
2023-12-30T01:52:00.027Z,100708.56
2023-12-30T01:55:06.361Z,100720.53
2023-12-30T01:58:08.869Z,100718.56
2023-12-30T02:01:11.630Z,100719.53
2023-12-30T02:04:13.952Z,100711.56
2023-12-30T02:07:16.335Z,100723.38
2023-12-30T02:10:19.536Z,100715.00
2023-12-30T02:13:22.389Z,100715.81
2023-12-30T02:16:24.720Z,100695.91
2023-12-30T02:19:26.880Z,100712.31
2023-12-30T02:22:29.053Z,100707.69
2023-12-30T02:25:31.526Z,100704.19
2023-12-30T02:28:33.791Z,100710.38
2023-12-30T02:31:50.071Z,100690.53
2023-12-30T02:34:52.459Z,100704.66
2023-12-30T02:37:54.633Z,100704.91
2023-12-30T02:40:56.513Z,100708.69
2023-12-30T02:44:01.785Z,100699.22
2023-12-30T02:47:03.755Z,100718.41
2023-12-30T02:50:06.337Z,100707.88
2023-12-30T02:53:08.523Z,100714.50
2023-12-30T02:56:25.427Z,100708.69
2023-12-30T02:59:27.448Z,100715.94
2023-12-30T03:02:29.521Z,100713.34
2023-12-30T03:05:31.664Z,100702.53
2023-12-30T03:08:33.813Z,100705.41
2023-12-30T03:11:35.867Z,100701.50
2023-12-30T03:14:37.943Z,100707.16
2023-12-30T03:17:43.206Z,100707.69
2023-12-30T03:20:46.129Z,100710.47
2023-12-30T03:23:48.370Z,100699.13
2023-12-30T03:26:50.632Z,100703.56
2023-12-30T03:29:53.713Z,100700.44
2023-12-30T03:32:57.178Z,100706.88
2023-12-30T03:36:02.531Z,100700.34
2023-12-30T03:39:05.486Z,100694.47
2023-12-30T03:42:07.648Z,100683.09
2023-12-30T03:45:10.969Z,100687.25
2023-12-30T03:48:13.631Z,100688.50
2023-12-30T03:51:17.489Z,100707.50
2023-12-30T03:54:22.234Z,100700.03
2023-12-30T03:57:24.783Z,100694.34
2023-12-30T04:00:27.054Z,100698.28
2023-12-30T04:03:29.165Z,100696.34
2023-12-30T04:06:31.437Z,100694.34
2023-12-30T04:09:34.813Z,100705.59
2023-12-30T04:12:37.278Z,100709.72
2023-12-30T04:15:39.620Z,100697.03
2023-12-30T04:18:42.965Z,100716.16
2023-12-30T04:21:45.060Z,100701.25
2023-12-30T04:24:48.368Z,100714.59
2023-12-30T04:27:50.947Z,100713.66
2023-12-30T04:30:54.049Z,100701.88
2023-12-30T04:33:56.308Z,100692.00
2023-12-30T04:36:58.223Z,100706.09
2023-12-30T04:40:00.428Z,100709.22
2023-12-30T04:43:02.804Z,100698.81
2023-12-30T04:46:05.499Z,100705.81
2023-12-30T04:49:07.689Z,100699.09
2023-12-30T04:52:11.563Z,100721.09
2023-12-30T04:55:13.693Z,100708.06
2023-12-30T04:58:16.386Z,100717.19
2023-12-30T05:01:18.596Z,100706.56
2023-12-30T05:04:21.408Z,100707.38
2023-12-30T05:07:23.567Z,100721.59
2023-12-30T05:10:25.839Z,100714.50
2023-12-30T05:13:27.956Z,100726.16
2023-12-30T05:16:32.617Z,100718.22
2023-12-30T05:19:34.711Z,100725.00
2023-12-30T05:22:36.884Z,100742.03
2023-12-30T05:25:39.535Z,100737.94
2023-12-30T05:28:41.993Z,100750.28
2023-12-30T05:31:44.137Z,100739.75
2023-12-30T05:34:46.261Z,100745.66
2023-12-30T05:37:48.505Z,100741.81
2023-12-30T05:40:50.386Z,100743.69
2023-12-30T05:43:52.547Z,100732.56
2023-12-30T05:46:54.588Z,100736.34
2023-12-30T05:49:56.977Z,100734.91
2023-12-30T05:53:00.619Z,100742.88
2023-12-30T05:56:03.483Z,100753.38
2023-12-30T05:59:07.592Z,100762.78
2023-12-30T06:02:11.350Z,100751.03
2023-12-30T06:05:17.260Z,100739.03
2023-12-30T06:08:21.022Z,100748.75
2023-12-30T06:11:25.834Z,100779.75
2023-12-30T06:14:28.372Z,100765.69
2023-12-30T06:17:31.592Z,100776.94
2023-12-30T06:20:33.947Z,100740.38
2023-12-30T06:23:36.200Z,100765.06
2023-12-30T06:26:39.294Z,100775.69
2023-12-30T06:29:42.650Z,100785.81
2023-12-30T06:32:44.809Z,100800.53
2023-12-30T06:35:47.168Z,100793.94
2023-12-30T06:38:49.489Z,100797.53
2023-12-30T06:41:54.252Z,100783.13
2023-12-30T06:44:57.026Z,100804.84
2023-12-30T06:47:59.304Z,100802.53
2023-12-30T06:51:02.999Z,100794.59
2023-12-30T06:54:07.610Z,100808.81
2023-12-30T06:57:09.918Z,100810.47
2023-12-30T07:00:12.417Z,100818.22
2023-12-30T07:03:15.015Z,100827.22
2023-12-30T07:06:18.926Z,100827.63
2023-12-30T07:09:23.835Z,100827.09
2023-12-30T07:12:25.742Z,100842.88
2023-12-30T07:15:27.926Z,100856.09
2023-12-30T07:18:30.098Z,100859.72
2023-12-30T07:21:32.354Z,100846.41
2023-12-30T07:24:34.491Z,100856.78
2023-12-30T07:27:36.683Z,100840.88
2023-12-30T07:30:38.787Z,100859.06
2023-12-30T07:33:42.803Z,100864.81
2023-12-30T07:36:45.194Z,100858.22
2023-12-30T07:39:47.685Z,100863.19
2023-12-30T07:42:49.867Z,100864.97
2023-12-30T07:45:51.915Z,100878.28
2023-12-30T07:48:56.613Z,100873.84
2023-12-30T07:52:02.010Z,100867.78
2023-12-30T07:55:04.887Z,100868.09
2023-12-30T07:58:08.134Z,100890.50
2023-12-30T08:01:11.663Z,100883.81
2023-12-30T08:04:14.601Z,100882.88
2023-12-30T08:07:16.812Z,100885.03
2023-12-30T08:10:20.170Z,100885.78
2023-12-30T08:13:22.350Z,100888.34
2023-12-30T08:16:24.731Z,100891.44
2023-12-30T08:19:26.814Z,100896.13
2023-12-30T08:22:30.057Z,100896.22
2023-12-30T08:25:32.172Z,100898.31
2023-12-30T08:28:34.412Z,100888.59
2023-12-30T08:31:37.106Z,100896.28
2023-12-30T08:34:39.193Z,100896.16
2023-12-30T08:37:41.314Z,100908.13
2023-12-30T08:40:47.076Z,100908.75
2023-12-30T08:43:53.336Z,100914.75
2023-12-30T08:46:55.455Z,100911.03
2023-12-30T08:49:58.007Z,100909.78
2023-12-30T08:53:00.467Z,100917.03
2023-12-30T08:56:03.371Z,100920.63
2023-12-30T08:59:05.355Z,100919.63
2023-12-30T09:02:07.483Z,100929.84
2023-12-30T09:05:09.782Z,100924.53
2023-12-30T09:08:13.479Z,100932.94
2023-12-30T09:11:23.046Z,100915.75
2023-12-30T09:14:25.355Z,100919.28
2023-12-30T09:17:27.505Z,100928.69
2023-12-30T09:20:31.088Z,100930.78
2023-12-30T09:23:34.223Z,100919.78
2023-12-30T09:26:36.772Z,100917.84
2023-12-30T09:29:40.129Z,100913.59
2023-12-30T09:32:42.406Z,100921.72
2023-12-30T09:35:45.257Z,100904.97
2023-12-30T09:38:47.829Z,100911.25
2023-12-30T09:41:50.306Z,100901.72
2023-12-30T09:44:53.168Z,100902.81
2023-12-30T09:48:00.859Z,100914.03
2023-12-30T09:51:03.229Z,100917.53
2023-12-30T09:54:07.701Z,100914.41
2023-12-30T09:57:09.930Z,100906.66
2023-12-30T10:00:16.795Z,100909.41
2023-12-30T10:03:20.592Z,100909.78
2023-12-30T10:06:26.758Z,100905.72
2023-12-30T10:09:31.336Z,100910.34
2023-12-30T10:12:33.831Z,100905.75
2023-12-30T10:15:36.198Z,100902.16
2023-12-30T10:18:41.223Z,100899.84
2023-12-30T10:21:45.094Z,100892.56
2023-12-30T10:24:50.202Z,100882.22
2023-12-30T10:27:52.358Z,100877.88
2023-12-30T10:31:06.115Z,100883.19
2023-12-30T10:34:09.310Z,100880.25
2023-12-30T10:37:13.363Z,100873.75
2023-12-30T10:40:16.884Z,100871.19
2023-12-30T10:43:22.966Z,100877.31
2023-12-30T10:46:28.348Z,100881.91
2023-12-30T10:49:31.110Z,100869.78
2023-12-30T10:52:37.338Z,100866.81
2023-12-30T10:55:50.793Z,100848.84
2023-12-30T10:58:59.318Z,100865.19
2023-12-30T11:02:06.923Z,100861.28
2023-12-30T11:05:13.149Z,100850.69
2023-12-30T11:08:18.269Z,100849.00
2023-12-30T11:11:25.438Z,100851.72
2023-12-30T11:14:28.917Z,100844.63
2023-12-30T11:17:35.238Z,100847.22
2023-12-30T11:20:46.474Z,100832.75
2023-12-30T11:23:49.507Z,100845.03
2023-12-30T11:26:54.556Z,100836.25
2023-12-30T11:29:58.227Z,100835.44
2023-12-30T11:33:01.064Z,100824.22
2023-12-30T11:36:07.744Z,100832.91
2023-12-30T11:39:16.664Z,100820.91
2023-12-30T11:42:18.606Z,100806.78
2023-12-30T11:45:24.870Z,100814.59
2023-12-30T11:48:29.901Z,100810.50
2023-12-30T11:51:33.197Z,100794.28
2023-12-30T11:54:37.007Z,100789.91
2023-12-30T11:57:39.183Z,100800.34
2023-12-30T12:00:41.504Z,100805.56
2023-12-30T12:03:46.523Z,100791.44
2023-12-30T12:06:49.103Z,100801.03
2023-12-30T12:09:51.309Z,100801.19
2023-12-30T12:12:54.505Z,100806.66
2023-12-30T12:15:57.787Z,100799.66
2023-12-30T12:19:03.912Z,100801.84
2023-12-30T12:22:07.615Z,100797.34
2023-12-30T12:25:13.397Z,100784.84
2023-12-30T12:28:19.569Z,100792.13
2023-12-30T12:31:22.457Z,100775.66
2023-12-30T12:34:29.883Z,100796.38
2023-12-30T12:37:34.871Z,100785.25
2023-12-30T12:40:40.584Z,100789.50
2023-12-30T12:43:42.904Z,100796.38
2023-12-30T12:46:47.876Z,100800.19
2023-12-30T12:50:14.641Z,100781.28
2023-12-30T12:53:21.094Z,100783.34
2023-12-30T12:56:32.901Z,100793.06
2023-12-30T12:59:59.001Z,100779.09
2023-12-30T13:03:06.689Z,100791.44
2023-12-30T13:06:15.773Z,100792.34
2023-12-30T13:13:10.967Z,100786.72
2023-12-30T13:16:15.295Z,100791.09
2023-12-30T13:19:23.071Z,100789.22
2023-12-30T13:22:39.719Z,100808.91
2023-12-30T13:25:55.683Z,100792.56
2023-12-30T13:29:06.104Z,100773.13
2023-12-30T13:32:19.392Z,100804.53
2023-12-30T13:35:28.168Z,100795.88
2023-12-30T13:38:36.307Z,100794.69
2023-12-30T13:41:46.435Z,100785.09
2023-12-30T13:44:55.275Z,100804.00
2023-12-30T13:48:07.363Z,100803.44
2023-12-30T13:51:21.514Z,100796.44
2023-12-30T13:54:24.779Z,100804.81
2023-12-30T13:57:38.725Z,100797.44
2023-12-30T14:00:44.426Z,100820.75
2023-12-30T14:03:49.537Z,100818.88
2023-12-30T14:06:51.948Z,100820.38
2023-12-30T14:10:08.028Z,100829.44
2023-12-30T14:13:24.374Z,100825.72
2023-12-30T14:16:30.697Z,100826.81
2023-12-30T14:19:32.915Z,100835.88
2023-12-30T14:22:35.724Z,100835.44
2023-12-30T14:25:40.926Z,100833.09
2023-12-30T14:28:43.486Z,100820.22
2023-12-30T14:31:46.602Z,100824.31
2023-12-30T14:34:51.446Z,100836.13
2023-12-30T14:37:53.817Z,100833.78
2023-12-30T14:41:07.932Z,100840.22
2023-12-30T14:44:19.442Z,100812.06
2023-12-30T14:47:22.613Z,100840.75
2023-12-30T14:50:25.361Z,100836.31
2023-12-30T14:53:27.776Z,100848.47
2023-12-30T14:56:30.166Z,100847.81
2023-12-30T14:59:32.830Z,100861.00
2023-12-30T15:02:40.478Z,100867.94
2023-12-30T15:05:44.069Z,100858.22
2023-12-30T15:08:49.004Z,100860.31
2023-12-30T15:12:04.789Z,100839.56
2023-12-30T15:15:11.025Z,100864.31
2023-12-30T15:18:13.739Z,100863.16
2023-12-30T15:21:16.782Z,100863.16
2023-12-30T15:24:24.850Z,100876.56
2023-12-30T15:27:28.447Z,100879.59
2023-12-30T15:30:34.688Z,100888.81
2023-12-30T15:33:41.233Z,100886.84
2023-12-30T15:36:47.500Z,100869.31
2023-12-30T15:39:49.929Z,100860.59
2023-12-30T15:42:55.855Z,100866.34
2023-12-30T15:45:59.497Z,100880.84
2023-12-30T15:49:01.752Z,100866.22
2023-12-30T15:52:04.109Z,100891.19
2023-12-30T15:55:06.911Z,100889.56
2023-12-30T15:58:09.212Z,100894.53
2023-12-30T16:01:11.873Z,100879.88
2023-12-30T16:04:14.338Z,100887.69
2023-12-30T16:07:16.420Z,100890.56
2023-12-30T16:10:18.735Z,100892.50
2023-12-30T16:13:21.110Z,100884.78
2023-12-30T16:16:23.167Z,100889.75
2023-12-30T16:19:26.608Z,100898.66
2023-12-30T16:22:28.645Z,100888.63
2023-12-30T16:25:33.398Z,100896.66
2023-12-30T16:28:36.898Z,100891.22
2023-12-30T16:31:39.189Z,100891.94
2023-12-30T16:34:41.940Z,100896.22
2023-12-30T16:37:47.073Z,100890.56
2023-12-30T16:40:49.748Z,100879.28
2023-12-30T16:43:52.248Z,100889.19
2023-12-30T16:46:56.768Z,100888.75
2023-12-30T16:49:59.006Z,100891.72
2023-12-30T16:53:06.120Z,100887.97
2023-12-30T16:56:16.923Z,100901.06
2023-12-30T16:59:20.794Z,100893.28
2023-12-30T17:02:23.248Z,100892.50
2023-12-30T17:05:26.742Z,100905.28
2023-12-30T17:08:33.129Z,100898.56
2023-12-30T17:11:37.340Z,100895.28
2023-12-30T17:14:45.823Z,100897.66
2023-12-30T17:17:51.729Z,100875.88
2023-12-30T17:20:54.434Z,100888.00
2023-12-30T17:23:58.110Z,100895.56
2023-12-30T17:27:04.298Z,100899.13
2023-12-30T17:30:10.384Z,100904.69
2023-12-30T17:33:17.797Z,100904.97
2023-12-30T17:36:20.516Z,100901.09
2023-12-30T17:39:26.168Z,100903.47
2023-12-30T17:42:32.091Z,100911.84
2023-12-30T17:45:40.051Z,100914.56
2023-12-30T17:48:43.404Z,100919.69
2023-12-30T17:51:48.123Z,100919.34
2023-12-30T17:54:53.204Z,100904.88
2023-12-30T17:58:10.323Z,100904.16
2023-12-30T18:01:16.833Z,100917.63
2023-12-30T18:04:31.539Z,100917.75
2023-12-30T18:07:56.575Z,100925.50
2023-12-30T18:11:13.883Z,100930.75
2023-12-30T18:14:23.461Z,100908.88
2023-12-30T18:17:31.135Z,100924.41
2023-12-30T18:20:39.674Z,100928.44
2023-12-30T18:27:15.702Z,100934.59
2023-12-30T18:30:38.394Z,100911.75
2023-12-30T18:33:51.078Z,100936.63
2023-12-30T18:36:59.329Z,100939.69
2023-12-30T18:40:31.434Z,100924.47
2023-12-30T18:43:34.980Z,100931.31
2023-12-30T18:46:42.491Z,100915.31
2023-12-30T18:49:58.767Z,100933.91
2023-12-30T18:53:28.747Z,100920.94
2023-12-30T18:56:34.294Z,100914.81
2023-12-30T18:59:49.653Z,100925.53
2023-12-30T19:03:02.869Z,100916.09
2023-12-30T19:06:23.645Z,100924.81
2023-12-30T19:09:51.131Z,100900.75
2023-12-30T19:13:02.580Z,100911.13
2023-12-30T19:16:11.434Z,100924.47
2023-12-30T19:19:14.024Z,100928.63
2023-12-30T19:22:16.511Z,100929.19
2023-12-30T19:25:19.452Z,100917.28
2023-12-30T19:28:22.748Z,100915.53
2023-12-30T19:31:25.252Z,100923.66
2023-12-30T19:34:27.865Z,100931.09
2023-12-30T19:37:32.182Z,100942.97
2023-12-30T19:40:34.795Z,100930.13
2023-12-30T19:43:37.608Z,100943.78
2023-12-30T19:46:40.455Z,100944.84
2023-12-30T19:49:44.520Z,100950.03
2023-12-30T19:52:48.290Z,100928.94
2023-12-30T19:55:50.993Z,100922.81
2023-12-30T19:58:53.732Z,100935.91
2023-12-30T20:01:57.008Z,100934.13
2023-12-30T20:05:02.579Z,100922.78
2023-12-30T20:08:06.705Z,100926.09
2023-12-30T20:11:10.503Z,100943.06
2023-12-30T20:14:16.536Z,100929.75
2023-12-30T20:17:18.723Z,100933.38
2023-12-30T20:20:21.045Z,100939.06
2023-12-30T20:23:27.201Z,100937.88
2023-12-30T20:26:29.908Z,100928.19
2023-12-30T20:29:33.152Z,100921.09
2023-12-30T20:32:39.576Z,100938.00
2023-12-30T20:35:43.925Z,100933.44
2023-12-30T20:38:46.295Z,100922.97
2023-12-30T20:41:51.677Z,100912.34
2023-12-30T20:44:54.241Z,100917.28
2023-12-30T20:47:56.926Z,100920.97
2023-12-30T20:50:59.607Z,100920.56
2023-12-30T20:54:02.380Z,100922.34
2023-12-30T20:57:06.432Z,100923.19
2023-12-30T21:00:12.071Z,100931.69
2023-12-30T21:03:14.722Z,100912.94
2023-12-30T21:06:16.999Z,100922.03
2023-12-30T21:09:20.011Z,100922.72
2023-12-30T21:12:25.068Z,100912.22
2023-12-30T21:15:31.960Z,100918.00
2023-12-30T21:18:35.147Z,100907.63
2023-12-30T21:21:40.920Z,100905.94
2023-12-30T21:24:46.699Z,100923.69
2023-12-30T21:27:54.711Z,100918.22
2023-12-30T21:30:59.091Z,100924.00
2023-12-30T21:34:09.325Z,100926.59
2023-12-30T21:37:14.009Z,100908.47
2023-12-30T21:40:20.270Z,100924.97
2023-12-30T21:43:24.671Z,100908.34
2023-12-30T21:46:27.803Z,100918.47
2023-12-30T21:49:30.995Z,100919.63
2023-12-30T21:52:37.618Z,100919.13
2023-12-30T21:55:43.589Z,100907.16
2023-12-30T21:58:46.461Z,100913.06
2023-12-30T22:01:50.359Z,100914.50
2023-12-30T22:04:54.864Z,100916.06
2023-12-30T22:07:58.203Z,100923.72
2023-12-30T22:11:00.825Z,100916.06
2023-12-30T22:14:04.356Z,100922.28
2023-12-30T22:17:10.794Z,100928.66
2023-12-30T22:20:14.384Z,100914.38
2023-12-30T22:23:20.369Z,100918.31
2023-12-30T22:26:24.742Z,100923.13
2023-12-30T22:29:27.624Z,100902.94
2023-12-30T22:32:31.205Z,100906.50
2023-12-30T22:35:34.173Z,100916.84
2023-12-30T22:38:40.065Z,100894.69
2023-12-30T22:41:43.409Z,100891.38
2023-12-30T22:44:51.329Z,100879.00
2023-12-30T22:47:54.097Z,100883.19
2023-12-30T22:50:59.177Z,100888.94
2023-12-30T22:54:03.298Z,100871.50
2023-12-30T22:57:09.771Z,100879.38
2023-12-30T23:00:15.152Z,100875.44
2023-12-30T23:03:22.062Z,100882.94
2023-12-30T23:06:26.927Z,100884.03
2023-12-30T23:09:29.736Z,100871.81
2023-12-30T23:12:32.584Z,100888.38
2023-12-30T23:15:35.027Z,100889.31
2023-12-30T23:18:40.064Z,100875.22
2023-12-30T23:21:44.039Z,100873.22
2023-12-30T23:24:46.563Z,100896.06
2023-12-30T23:27:49.164Z,100896.94
2023-12-30T23:30:51.646Z,100894.34
2023-12-30T23:33:54.133Z,100896.59
2023-12-30T23:36:56.850Z,100890.59
2023-12-30T23:40:02.588Z,100890.94
2023-12-30T23:43:06.294Z,100888.16
2023-12-30T23:46:09.766Z,100887.06
2023-12-30T23:49:12.646Z,100886.69
2023-12-30T23:52:15.520Z,100897.41
2023-12-30T23:55:18.281Z,100887.16
2023-12-30T23:58:20.648Z,100872.69
